createdAt,value
2022-11-02T00:00:21.627Z,100821.34
2022-11-02T00:02:49.480Z,100823.22
2022-11-02T00:05:23.685Z,100815.00
2022-11-02T00:07:51.836Z,100825.94
2022-11-02T00:10:19.517Z,100819.63
2022-11-02T00:12:47.314Z,100817.94
2022-11-02T00:15:15.046Z,100822.38
2022-11-02T00:17:42.895Z,100825.09
2022-11-02T00:20:10.720Z,100827.81
2022-11-02T00:22:38.413Z,100829.72
2022-11-02T00:25:06.882Z,100824.25
2022-11-02T00:27:34.579Z,100828.66
2022-11-02T00:30:02.282Z,100834.13
2022-11-02T00:32:30.148Z,100833.28
2022-11-02T00:34:57.910Z,100840.63
2022-11-02T00:37:25.912Z,100838.94
2022-11-02T00:39:53.771Z,100837.91
2022-11-02T00:42:21.624Z,100834.34
2022-11-02T00:44:49.311Z,100838.94
2022-11-02T00:47:17.097Z,100842.53
2022-11-02T00:49:44.750Z,100838.94
2022-11-02T00:52:12.450Z,100838.94
2022-11-02T00:54:40.177Z,100828.88
2022-11-02T00:57:07.823Z,100833.50
2022-11-02T00:59:35.546Z,100831.78
2022-11-02T01:02:03.375Z,100823.59
2022-11-02T01:04:31.131Z,100831.78
2022-11-02T01:06:58.898Z,100820.84
2022-11-02T01:09:26.639Z,100827.34
2022-11-02T01:11:54.600Z,100828.19
2022-11-02T01:14:22.417Z,100831.09
2022-11-02T01:16:50.148Z,100827.34
2022-11-02T01:19:18.003Z,100823.59
2022-11-02T01:21:45.744Z,100822.91
2022-11-02T01:24:13.435Z,100821.91
2022-11-02T01:26:41.225Z,100813.88
2022-11-02T01:29:08.929Z,100820.00
2022-11-02T01:31:36.738Z,100802.97
2022-11-02T01:34:04.950Z,100813.72
2022-11-02T01:36:32.635Z,100812.00
2022-11-02T01:39:00.308Z,100812.00
2022-11-02T01:41:27.957Z,100813.88
2022-11-02T01:43:55.711Z,100815.75
2022-11-02T01:46:23.661Z,100811.16
2022-11-02T01:48:51.346Z,100819.34
2022-11-02T01:51:19.268Z,100820.19
2022-11-02T01:53:47.232Z,100808.25
2022-11-02T01:56:14.995Z,100801.06
2022-11-02T01:58:42.942Z,100802.78
2022-11-02T02:01:10.660Z,100795.59
2022-11-02T02:03:38.357Z,100802.97
2022-11-02T02:06:06.570Z,100802.13
2022-11-02T02:08:34.277Z,100795.97
2022-11-02T02:11:02.010Z,100793.25
2022-11-02T02:13:29.746Z,100795.97
2022-11-02T02:15:57.490Z,100794.97
2022-11-02T02:18:25.151Z,100800.22
2022-11-02T02:20:52.838Z,100785.91
2022-11-02T02:23:20.538Z,100795.97
2022-11-02T02:25:48.257Z,100792.25
2022-11-02T02:28:16.073Z,100792.41
2022-11-02T02:30:43.816Z,100795.13
2022-11-02T02:33:11.678Z,100787.78
2022-11-02T02:35:39.448Z,100795.97
2022-11-02T02:38:07.413Z,100793.47
2022-11-02T02:40:35.457Z,100791.75
2022-11-02T02:43:03.182Z,100797.03
2022-11-02T02:45:32.176Z,100798.03
2022-11-02T02:47:59.925Z,100801.81
2022-11-02T02:50:27.751Z,100794.66
2022-11-02T02:52:55.878Z,100789.22
2022-11-02T02:55:23.765Z,100789.22
2022-11-02T02:57:51.594Z,100783.75
2022-11-02T03:00:19.365Z,100775.56
2022-11-02T03:07:56.974Z,100779.97
2022-11-02T03:10:24.671Z,100775.34
2022-11-02T03:12:52.566Z,100770.75
2022-11-02T03:15:20.252Z,100772.84
2022-11-02T03:17:48.288Z,100772.84
2022-11-02T03:20:16.020Z,100768.38
2022-11-02T03:22:43.874Z,100769.22
2022-11-02T03:25:11.645Z,100772.84
2022-11-02T03:27:39.679Z,100774.69
2022-11-02T03:30:07.938Z,100767.38
2022-11-02T03:35:03.323Z,100761.91
2022-11-02T03:37:31.333Z,100753.72
2022-11-02T03:39:59.069Z,100755.56
2022-11-02T03:42:26.903Z,100760.88
2022-11-02T03:44:54.598Z,100754.72
2022-11-02T03:47:22.372Z,100752.00
2022-11-02T03:49:50.564Z,100751.00
2022-11-02T03:52:18.333Z,100764.81
2022-11-02T03:54:46.091Z,100763.75
2022-11-02T03:57:13.817Z,100766.50
2022-11-02T03:59:41.591Z,100761.03
2022-11-02T04:02:09.732Z,100754.72
2022-11-02T04:04:37.511Z,100765.66
2022-11-02T04:07:05.400Z,100759.19
2022-11-02T04:09:33.043Z,100766.50
2022-11-02T04:12:14.571Z,100771.97
2022-11-02T04:14:42.249Z,100766.50
2022-11-02T04:17:27.596Z,100768.59
2022-11-02T04:19:55.350Z,100765.66
2022-11-02T04:22:40.723Z,100756.63
2022-11-02T04:25:18.616Z,100760.19
2022-11-02T04:27:47.202Z,100763.75
2022-11-02T04:33:00.476Z,100761.72
2022-11-02T04:35:28.190Z,100769.06
2022-11-02T04:38:13.465Z,100765.28
2022-11-02T04:40:41.175Z,100767.00
2022-11-02T04:43:08.902Z,100763.22
2022-11-02T04:45:39.028Z,100765.78
2022-11-02T04:48:07.059Z,100761.16
2022-11-02T04:50:35.221Z,100767.28
2022-11-02T04:53:02.961Z,100764.34
2022-11-02T04:55:30.756Z,100765.88
2022-11-02T04:57:58.571Z,100760.41
2022-11-02T05:00:26.242Z,100753.94
2022-11-02T05:02:54.004Z,100753.09
2022-11-02T05:05:22.209Z,100755.63
2022-11-02T05:07:49.970Z,100750.16
2022-11-02T05:10:17.726Z,100749.97
2022-11-02T05:12:45.577Z,100749.13
2022-11-02T05:15:13.236Z,100750.81
2022-11-02T05:17:41.127Z,100743.47
2022-11-02T05:20:08.851Z,100754.41
2022-11-02T05:22:36.565Z,100755.91
2022-11-02T05:25:04.408Z,100756.75
2022-11-02T05:27:32.042Z,100749.44
2022-11-02T05:30:00.060Z,100748.56
2022-11-02T05:32:27.777Z,100744.59
2022-11-02T05:34:55.477Z,100747.31
2022-11-02T05:37:23.244Z,100749.44
2022-11-02T05:39:50.921Z,100748.75
2022-11-02T05:42:18.651Z,100744.50
2022-11-02T05:44:46.357Z,100749.97
2022-11-02T05:47:14.069Z,100753.72
2022-11-02T05:49:41.813Z,100756.28
2022-11-02T05:52:09.586Z,100752.88
2022-11-02T05:54:37.318Z,100760.06
2022-11-02T05:57:04.980Z,100757.31
2022-11-02T05:59:32.830Z,100763.44
2022-11-02T06:02:00.700Z,100758.84
2022-11-02T06:04:28.477Z,100759.69
2022-11-02T06:06:56.300Z,100764.94
2022-11-02T06:09:23.998Z,100770.41
2022-11-02T06:11:51.726Z,100765.97
2022-11-02T06:14:19.399Z,100773.34
2022-11-02T06:16:47.128Z,100775.00
2022-11-02T06:21:48.632Z,100790.38
2022-11-02T06:24:16.585Z,100793.97
2022-11-02T06:26:44.324Z,100799.22
2022-11-02T06:29:12.188Z,100803.66
2022-11-02T06:31:40.005Z,100812.69
2022-11-02T06:34:07.766Z,100814.38
2022-11-02T06:36:35.501Z,100818.63
2022-11-02T06:39:03.162Z,100821.38
2022-11-02T06:41:31.027Z,100821.19
2022-11-02T06:43:58.726Z,100819.31
2022-11-02T06:46:26.421Z,100819.69
2022-11-02T06:48:54.297Z,100823.25
2022-11-02T06:51:21.930Z,100825.81
2022-11-02T06:53:49.663Z,100818.84
2022-11-02T06:56:17.393Z,100819.00
2022-11-02T06:58:45.268Z,100831.66
2022-11-02T07:01:13.891Z,100834.38
2022-11-02T07:03:41.930Z,100838.78
2022-11-02T07:06:13.937Z,100837.97
2022-11-02T07:08:42.651Z,100846.31
2022-11-02T07:11:10.384Z,100853.50
2022-11-02T07:13:38.096Z,100853.50
2022-11-02T07:16:05.787Z,100861.69
2022-11-02T07:18:33.526Z,100859.97
2022-11-02T07:21:01.687Z,100864.44
2022-11-02T07:23:29.389Z,100863.56
2022-11-02T07:25:57.249Z,100869.88
2022-11-02T07:28:24.918Z,100871.75
2022-11-02T07:30:52.799Z,100866.28
2022-11-02T07:33:20.593Z,100864.44
2022-11-02T07:35:48.614Z,100859.81
2022-11-02T07:38:16.310Z,100868.47
2022-11-02T07:40:44.337Z,100863.69
2022-11-02T07:43:12.031Z,100860.56
2022-11-02T07:45:39.713Z,100877.63
2022-11-02T07:48:07.467Z,100876.59
2022-11-02T07:50:35.301Z,100866.69
2022-11-02T07:53:03.418Z,100876.28
2022-11-02T07:55:31.318Z,100878.84
2022-11-02T07:57:59.060Z,100885.00
2022-11-02T08:00:26.860Z,100886.84
2022-11-02T08:02:54.729Z,100890.63
2022-11-02T08:05:22.525Z,100890.16
2022-11-02T08:07:50.212Z,100889.28
2022-11-02T08:10:17.925Z,100874.59
2022-11-02T08:12:47.494Z,100871.03
2022-11-02T08:15:15.286Z,100878.34
2022-11-02T08:17:42.969Z,100881.75
2022-11-02T08:20:10.725Z,100877.81
2022-11-02T08:22:38.436Z,100872.16
2022-11-02T08:25:06.169Z,100876.78
2022-11-02T08:27:33.858Z,100886.19
2022-11-02T08:30:01.906Z,100876.13
2022-11-02T08:32:29.600Z,100883.09
2022-11-02T08:34:57.345Z,100870.28
2022-11-02T08:37:25.033Z,100870.44
2022-11-02T08:39:52.702Z,100868.94
2022-11-02T08:42:20.455Z,100866.03
2022-11-02T08:44:48.301Z,100870.44
2022-11-02T08:47:17.854Z,100859.22
2022-11-02T08:49:47.162Z,100859.22
2022-11-02T08:52:14.853Z,100868.38
2022-11-02T08:54:42.720Z,100866.50
2022-11-02T08:57:10.592Z,100859.22
2022-11-02T08:59:38.454Z,100852.00
2022-11-02T09:02:06.395Z,100850.31
2022-11-02T09:04:34.215Z,100862.94
2022-11-02T09:07:01.961Z,100854.72
2022-11-02T09:09:29.693Z,100866.69
2022-11-02T09:11:57.448Z,100865.88
2022-11-02T09:14:25.584Z,100862.25
2022-11-02T09:16:53.258Z,100859.53
2022-11-02T09:19:20.927Z,100869.44
2022-11-02T09:21:49.852Z,100873.84
2022-11-02T09:24:17.564Z,100874.69
2022-11-02T09:26:45.248Z,100874.69
2022-11-02T09:29:12.958Z,100868.38
2022-11-02T09:31:40.703Z,100873.00
2022-11-02T09:34:08.504Z,100873.84
2022-11-02T09:36:36.194Z,100872.88
2022-11-02T09:39:04.043Z,100886.66
2022-11-02T09:41:31.729Z,100887.50
2022-11-02T09:43:59.431Z,100894.88
2022-11-02T09:46:27.144Z,100895.72
2022-11-02T09:48:54.908Z,100894.72
2022-11-02T09:51:22.730Z,100892.97
2022-11-02T09:53:50.378Z,100898.09
2022-11-02T09:56:19.793Z,100910.75
2022-11-02T09:58:47.510Z,100903.56
2022-11-02T10:01:15.649Z,100909.22
2022-11-02T10:03:43.395Z,100899.50
2022-11-02T10:06:11.154Z,100908.69
2022-11-02T10:08:38.968Z,100910.59
2022-11-02T10:11:08.314Z,100915.03
2022-11-02T10:13:36.142Z,100917.94
2022-11-02T10:16:03.965Z,100905.97
2022-11-02T10:18:31.670Z,100917.94
2022-11-02T10:20:59.521Z,100906.84
2022-11-02T10:23:27.401Z,100916.88
2022-11-02T10:25:55.465Z,100919.16
2022-11-02T10:28:23.259Z,100908.22
2022-11-02T10:30:51.034Z,100916.41
2022-11-02T10:33:18.812Z,100917.94
2022-11-02T10:36:12.065Z,100921.34
2022-11-02T10:38:34.221Z,100921.50
2022-11-02T10:41:02.033Z,100912.94
2022-11-02T10:43:29.777Z,100916.38
2022-11-02T10:45:57.859Z,100906.28
2022-11-02T10:48:25.513Z,100913.84
2022-11-02T10:50:53.260Z,100923.72
2022-11-02T10:53:40.055Z,100916.38
2022-11-02T10:56:08.661Z,100916.59
2022-11-02T10:58:36.315Z,100924.78
2022-11-02T11:01:04.138Z,100917.56
2022-11-02T11:03:31.940Z,100923.72
2022-11-02T11:06:00.441Z,100931.09
2022-11-02T11:08:28.286Z,100924.78
2022-11-02T11:10:56.089Z,100915.53
2022-11-02T11:16:17.743Z,100922.03
2022-11-02T11:21:35.155Z,100927.66
2022-11-02T11:24:02.881Z,100924.06
2022-11-02T11:26:30.685Z,100926.97
2022-11-02T11:28:58.392Z,100925.97
2022-11-02T11:31:26.057Z,100923.22
2022-11-02T11:33:53.891Z,100922.56
2022-11-02T11:36:21.723Z,100931.44
2022-11-02T11:38:49.529Z,100923.41
2022-11-02T11:41:17.198Z,100927.66
2022-11-02T11:43:44.862Z,100933.97
2022-11-02T11:46:12.690Z,100940.25
2022-11-02T11:48:40.370Z,100943.19
2022-11-02T11:51:08.029Z,100948.81
2022-11-02T11:53:38.758Z,100942.69
2022-11-02T11:56:06.479Z,100945.25
2022-11-02T11:58:34.479Z,100942.53
2022-11-02T12:01:07.401Z,100953.28
2022-11-02T12:03:38.099Z,100943.38
2022-11-02T12:06:05.934Z,100945.09
2022-11-02T12:08:33.640Z,100943.19
2022-11-02T12:11:01.499Z,100941.47
2022-11-02T12:13:29.250Z,100939.63
2022-11-02T12:15:57.691Z,100937.72
2022-11-02T12:18:25.509Z,100950.34
2022-11-02T12:20:53.205Z,100952.41
2022-11-02T12:23:20.909Z,100938.75
2022-11-02T12:25:48.576Z,100938.75
2022-11-02T12:28:16.516Z,100937.06
2022-11-02T12:30:44.272Z,100938.94
2022-11-02T12:33:11.924Z,100945.25
2022-11-02T12:35:39.727Z,100940.63
2022-11-02T12:38:07.656Z,100939.78
2022-11-02T12:40:35.648Z,100943.38
2022-11-02T12:43:05.582Z,100953.28
2022-11-02T12:45:37.211Z,100945.09
2022-11-02T12:48:05.806Z,100946.94
2022-11-02T12:50:33.677Z,100943.38
2022-11-02T12:53:01.400Z,100949.66
2022-11-02T12:55:31.958Z,100956.84
2022-11-02T12:58:02.944Z,100949.66
2022-11-02T13:00:33.429Z,100941.47
2022-11-02T13:03:01.457Z,100952.41
2022-11-02T13:05:29.236Z,100937.91
2022-11-02T13:07:57.016Z,100930.56
2022-11-02T13:10:24.728Z,100929.03
2022-11-02T13:12:52.449Z,100933.47
2022-11-02T13:15:20.547Z,100940.63
2022-11-02T13:17:48.367Z,100923.41
2022-11-02T13:20:16.051Z,100927.81
2022-11-02T13:22:43.700Z,100934.16
2022-11-02T13:25:11.446Z,100936.88
2022-11-02T13:27:40.477Z,100936.00
2022-11-02T13:30:08.201Z,100949.88
2022-11-02T13:32:36.221Z,100960.59
2022-11-02T13:35:03.992Z,100954.66
2022-11-02T13:37:31.742Z,100952.09
2022-11-02T13:39:59.415Z,100950.25
2022-11-02T13:42:27.134Z,100951.09
2022-11-02T13:44:55.084Z,100954.66
2022-11-02T13:47:22.842Z,100953.81
2022-11-02T13:49:50.560Z,100935.72
2022-11-02T13:52:18.243Z,100933.84
2022-11-02T13:54:46.122Z,100931.97
2022-11-02T13:57:13.897Z,100920.84
2022-11-02T13:59:43.410Z,100930.06
2022-11-02T14:02:11.456Z,100938.44
2022-11-02T14:04:39.285Z,100944.78
2022-11-02T14:07:06.935Z,100943.91
2022-11-02T14:09:34.624Z,100952.09
2022-11-02T14:12:02.346Z,100950.41
2022-11-02T14:14:30.058Z,100951.09
2022-11-02T14:16:58.627Z,100967.47
2022-11-02T14:19:26.952Z,100969.38
2022-11-02T14:21:54.714Z,100975.00
2022-11-02T14:24:22.615Z,100976.03
2022-11-02T14:26:50.364Z,100975.00
2022-11-02T14:29:18.086Z,100975.00
2022-11-02T14:31:45.917Z,100973.09
2022-11-02T14:34:13.586Z,100967.66
2022-11-02T14:36:41.370Z,100956.91
2022-11-02T14:39:09.302Z,100956.03
2022-11-02T14:41:37.130Z,100959.66
2022-11-02T14:44:04.833Z,100965.97
2022-11-02T14:46:32.520Z,100976.03
2022-11-02T14:49:00.243Z,100978.78
2022-11-02T14:51:27.933Z,100983.34
2022-11-02T14:53:55.747Z,100983.34
2022-11-02T14:56:23.434Z,100985.09
2022-11-02T14:58:51.093Z,100984.22
2022-11-02T15:01:18.777Z,100983.19
2022-11-02T15:03:48.279Z,100985.94
2022-11-02T15:06:17.563Z,100982.34
2022-11-02T15:08:45.321Z,100986.97
2022-11-02T15:11:13.014Z,101006.09
2022-11-02T15:13:40.741Z,100996.00
2022-11-02T15:16:08.485Z,101002.47
2022-11-02T15:18:37.093Z,101005.22
2022-11-02T15:21:04.788Z,100998.91
2022-11-02T15:23:32.704Z,101006.94
2022-11-02T15:26:01.204Z,100998.91
2022-11-02T15:28:29.516Z,101006.09
2022-11-02T15:30:57.244Z,101009.84
2022-11-02T15:33:24.976Z,101016.34
2022-11-02T15:35:52.672Z,101019.06
2022-11-02T15:38:25.798Z,101024.53
2022-11-02T15:41:04.447Z,101022.84
2022-11-02T15:43:33.575Z,101015.66
2022-11-02T15:46:06.488Z,101022.84
2022-11-02T15:48:36.838Z,101013.59
2022-11-02T15:51:04.617Z,101013.59
2022-11-02T15:53:34.472Z,101009.19
2022-11-02T15:56:02.203Z,101007.31
2022-11-02T15:58:29.961Z,101009.34
2022-11-02T16:00:57.710Z,101013.78
2022-11-02T16:03:25.445Z,101015.66
2022-11-02T16:05:53.159Z,101016.50
2022-11-02T16:08:21.031Z,101021.13
2022-11-02T16:10:48.853Z,101028.31
2022-11-02T16:13:17.936Z,101032.03
2022-11-02T16:15:45.731Z,101032.03
2022-11-02T16:18:13.469Z,101028.47
2022-11-02T16:20:41.400Z,101024.91
2022-11-02T16:23:09.065Z,101031.22
2022-11-02T16:25:39.820Z,101035.81
2022-11-02T16:28:08.504Z,101039.56
2022-11-02T16:30:36.231Z,101037.88
2022-11-02T16:33:04.238Z,101035.16
2022-11-02T16:35:31.914Z,101037.03
2022-11-02T16:37:59.604Z,101044.38
2022-11-02T16:40:27.543Z,101042.28
2022-11-02T16:42:55.258Z,101045.03
2022-11-02T16:45:23.005Z,101038.72
2022-11-02T16:47:50.695Z,101044.03
2022-11-02T16:50:18.453Z,101046.75
2022-11-02T16:52:46.135Z,101038.56
2022-11-02T16:55:13.816Z,101041.09
2022-11-02T16:57:41.567Z,101052.00
2022-11-02T17:00:09.768Z,101052.88
2022-11-02T17:02:37.678Z,101053.72
2022-11-02T17:05:06.807Z,101051.84
2022-11-02T17:07:34.956Z,101052.88
2022-11-02T17:10:02.696Z,101062.28
2022-11-02T17:12:30.513Z,101063.13
2022-11-02T17:14:58.464Z,101058.03
2022-11-02T17:17:26.181Z,101066.41
2022-11-02T17:19:54.033Z,101057.53
2022-11-02T17:22:21.736Z,101067.59
2022-11-02T17:24:49.424Z,101063.84
2022-11-02T17:27:17.119Z,101061.78
2022-11-02T17:29:44.845Z,101062.81
2022-11-02T17:32:12.530Z,101063.84
2022-11-02T17:34:40.768Z,101069.28
2022-11-02T17:37:08.577Z,101067.59
2022-11-02T17:39:37.929Z,101070.50
2022-11-02T17:42:23.309Z,101071.38
2022-11-02T17:44:51.183Z,101073.22
2022-11-02T17:47:18.985Z,101070.50
2022-11-02T17:49:46.734Z,101070.69
2022-11-02T17:52:14.574Z,101067.97
2022-11-02T17:54:42.747Z,101068.97
2022-11-02T17:57:10.471Z,101075.31
2022-11-02T17:59:38.213Z,101072.59
2022-11-02T18:02:06.011Z,101064.41
2022-11-02T18:04:33.965Z,101066.25
2022-11-02T18:07:02.113Z,101065.25
2022-11-02T18:09:30.153Z,101064.88
2022-11-02T18:11:57.873Z,101060.63
2022-11-02T18:14:25.614Z,101075.13
2022-11-02T18:16:53.422Z,101075.31
2022-11-02T18:19:21.202Z,101067.28
2022-11-02T18:21:48.947Z,101070.03
2022-11-02T18:24:16.710Z,101059.94
2022-11-02T18:26:47.010Z,101067.28
2022-11-02T18:29:14.943Z,101062.00
2022-11-02T18:31:42.620Z,101058.25
2022-11-02T18:34:10.742Z,101064.56
2022-11-02T18:36:38.800Z,101060.31
2022-11-02T18:39:06.495Z,101059.47
2022-11-02T18:41:35.097Z,101071.06
2022-11-02T18:44:08.922Z,101064.72
2022-11-02T18:46:39.893Z,101057.41
2022-11-02T18:49:07.882Z,101064.72
2022-11-02T18:51:35.553Z,101050.22
2022-11-02T18:54:03.441Z,101050.22
2022-11-02T18:56:31.175Z,101057.41
2022-11-02T18:58:59.101Z,101057.22
2022-11-02T19:01:27.096Z,101049.00
2022-11-02T19:03:54.891Z,101049.00
2022-11-02T19:06:40.108Z,101057.22
2022-11-02T19:09:19.929Z,101057.41
2022-11-02T19:11:47.702Z,101051.94
2022-11-02T19:14:15.806Z,101050.91
2022-11-02T19:16:43.520Z,101051.75
2022-11-02T19:19:11.332Z,101063.72
2022-11-02T19:21:39.013Z,101057.41
2022-11-02T19:24:06.704Z,101050.22
2022-11-02T19:26:34.618Z,101062.88
2022-11-02T19:29:05.982Z,101051.25
2022-11-02T19:34:26.279Z,101047.50
2022-11-02T19:36:53.985Z,101047.50
2022-11-02T19:39:21.662Z,101053.81
2022-11-02T19:41:53.607Z,101056.53
2022-11-02T19:44:21.482Z,101051.06
2022-11-02T19:46:49.132Z,101051.06
2022-11-02T19:49:17.275Z,101063.88
2022-11-02T19:51:45.020Z,101068.50
2022-11-02T19:54:12.810Z,101064.91
2022-11-02T19:56:40.745Z,101063.19
2022-11-02T19:59:08.600Z,101068.66
2022-11-02T20:01:36.711Z,101064.91
2022-11-02T20:04:04.495Z,101064.91
2022-11-02T20:06:32.626Z,101064.91
2022-11-02T20:09:01.697Z,101068.66
2022-11-02T20:11:29.713Z,101083.34
2022-11-02T20:13:57.455Z,101079.59
2022-11-02T20:16:27.167Z,101080.25
2022-11-02T20:18:59.818Z,101068.50
2022-11-02T20:21:32.391Z,101072.06
2022-11-02T20:24:03.224Z,101084.88
2022-11-02T20:26:31.373Z,101083.00
2022-11-02T20:28:59.418Z,101075.84
2022-11-02T20:31:30.459Z,101072.28
2022-11-02T20:33:58.298Z,101077.53
2022-11-02T20:36:27.089Z,101082.16
2022-11-02T20:38:56.332Z,101091.19
2022-11-02T20:41:24.289Z,101088.47
2022-11-02T20:43:52.024Z,101089.50
2022-11-02T20:49:20.502Z,101099.75
2022-11-02T20:51:50.312Z,101105.19
2022-11-02T20:54:19.991Z,101094.28
2022-11-02T20:56:47.896Z,101095.97
2022-11-02T20:59:15.706Z,101093.25
2022-11-02T21:01:43.658Z,101103.16
2022-11-02T21:04:16.886Z,101103.16
2022-11-02T21:06:47.849Z,101114.06
2022-11-02T21:09:15.664Z,101105.88
2022-11-02T21:12:01.186Z,101103.84
2022-11-02T21:14:29.297Z,101105.88
2022-11-02T21:16:56.968Z,101114.06
2022-11-02T21:19:24.833Z,101097.69
2022-11-02T21:21:58.142Z,101090.50
2022-11-02T21:24:27.831Z,101086.94
2022-11-02T21:26:55.528Z,101095.31
2022-11-02T21:29:28.313Z,101093.25
2022-11-02T21:31:56.011Z,101090.50
2022-11-02T21:34:23.884Z,101090.50
2022-11-02T21:36:51.629Z,101079.59
2022-11-02T21:39:19.353Z,101084.19
2022-11-02T21:41:47.278Z,101077.91
2022-11-02T21:44:15.293Z,101077.06
2022-11-02T21:46:43.006Z,101075.16
2022-11-02T21:49:10.791Z,101080.63
2022-11-02T21:51:38.662Z,101084.41
2022-11-02T21:54:09.087Z,101078.94
2022-11-02T21:56:38.185Z,101073.28
2022-11-02T21:59:06.338Z,101068.00
2022-11-02T22:01:47.095Z,101069.88
2022-11-02T22:04:15.809Z,101071.75
2022-11-02T22:06:43.571Z,101057.25
2022-11-02T22:09:11.560Z,101063.56
2022-11-02T22:11:39.280Z,101066.50
2022-11-02T22:14:06.957Z,101066.28
2022-11-02T22:16:35.063Z,101060.16
2022-11-02T22:19:02.866Z,101071.06
2022-11-02T22:21:30.629Z,101056.56
2022-11-02T22:23:58.319Z,101046.50
2022-11-02T22:26:26.061Z,101050.09
2022-11-02T22:28:54.017Z,101056.56
2022-11-02T22:31:21.698Z,101048.59
2022-11-02T22:33:49.809Z,101051.31
2022-11-02T22:36:17.654Z,101044.13
2022-11-02T22:38:54.151Z,101038.66
2022-11-02T22:41:21.929Z,101021.44
2022-11-02T22:43:49.626Z,101026.06
2022-11-02T22:46:17.301Z,101024.19
2022-11-02T22:48:44.972Z,101031.53
2022-11-02T22:51:12.661Z,101031.53
2022-11-02T22:53:40.491Z,101029.47
2022-11-02T22:56:08.880Z,101024.00
2022-11-02T22:58:36.578Z,101023.34
2022-11-02T23:01:04.568Z,101024.19
2022-11-02T23:03:32.765Z,101025.03
2022-11-02T23:06:00.508Z,101013.09
2022-11-02T23:08:28.345Z,101021.09
2022-11-02T23:11:13.399Z,101014.94
2022-11-02T23:13:57.424Z,101017.19
2022-11-02T23:16:25.224Z,101018.22
2022-11-02T23:19:10.277Z,101015.50
2022-11-02T23:21:38.010Z,101020.75
2022-11-02T23:24:23.734Z,101015.97
2022-11-02T23:26:51.482Z,101020.75
2022-11-02T23:29:36.880Z,101015.31
2022-11-02T23:32:23.628Z,101016.34
2022-11-02T23:35:08.580Z,101016.50
2022-11-02T23:37:36.213Z,101002.84
2022-11-02T23:40:04.090Z,101002.84
2022-11-02T23:42:31.707Z,101004.59
2022-11-02T23:44:59.468Z,100998.06
2022-11-02T23:47:41.079Z,100992.63
2022-11-02T23:50:08.693Z,101005.44
2022-11-02T23:52:54.086Z,100994.50
2022-11-02T23:55:39.268Z,100997.25
2022-11-02T23:58:06.923Z,100998.44
